Terminal Aerodrome Forecast
Issued by NWS Wilmington, OH

Current Version | Previous Version | Graphics & Text | Print | Product List | Glossary On
Versions: 1 2 3 4 5 6 7 8 9 10 11
720
FTUS41 KILN 232335 AAB
TAFILN
TAF AMD
KILN 232335Z 2400/2424 05010KT P6SM BKN200
     FM240800 04006KT P6SM SCT250
     FM241400 07010KT P6SM SCT200
     FM241800 09010KT P6SM BKN050=

USA.gov is the U.S. government's official web portal to all federal, state and local government web resources and services.